createdAt,value
2018-02-06T00:00:21.107Z,24.77
2018-02-06T00:02:47.405Z,20.93
2018-02-06T00:05:13.376Z,18.53
2018-02-06T00:07:39.398Z,20.93
2018-02-06T00:10:05.492Z,18.67
2018-02-06T00:12:31.513Z,18.50
2018-02-06T00:14:57.481Z,21.30
2018-02-06T00:17:23.525Z,24.93
2018-02-06T00:19:49.606Z,24.90
2018-02-06T00:22:15.641Z,24.60
2018-02-06T00:24:41.664Z,17.73
2018-02-06T00:27:07.806Z,21.70
2018-02-06T00:29:33.792Z,19.07
2018-02-06T00:31:59.816Z,25.50
2018-02-06T00:34:25.868Z,22.80
2018-02-06T00:36:51.939Z,19.07
2018-02-06T00:39:18.097Z,25.57
2018-02-06T00:41:44.053Z,17.37
2018-02-06T00:44:10.072Z,15.77
2018-02-06T00:46:36.196Z,19.30
2018-02-06T00:49:02.245Z,19.03
2018-02-06T00:51:28.326Z,16.43
2018-02-06T00:53:54.356Z,25.93
2018-02-06T00:56:20.508Z,20.87
2018-02-06T00:58:46.522Z,20.90
2018-02-06T01:01:12.913Z,20.27
2018-02-06T01:03:38.899Z,22.63
2018-02-06T01:06:04.928Z,20.60
2018-02-06T01:08:30.940Z,19.77
2018-02-06T01:10:56.950Z,18.43
2018-02-06T01:13:22.912Z,18.00
2018-02-06T01:15:48.933Z,24.07
2018-02-06T01:18:14.916Z,19.97
2018-02-06T01:20:40.863Z,17.57
2018-02-06T01:23:06.953Z,24.00
2018-02-06T01:25:32.979Z,19.57
2018-02-06T01:27:59.036Z,20.10
2018-02-06T01:30:25.049Z,20.40
2018-02-06T01:32:51.073Z,18.20
2018-02-06T01:35:17.114Z,23.63
2018-02-06T01:37:43.149Z,21.57
2018-02-06T01:40:09.113Z,19.87
2018-02-06T01:42:35.103Z,25.43
2018-02-06T01:45:01.218Z,22.53
2018-02-06T01:47:27.230Z,22.50
2018-02-06T01:50:04.325Z,18.00
2018-02-06T01:52:30.372Z,21.50
2018-02-06T01:54:56.412Z,24.07
2018-02-06T01:57:22.435Z,22.70
2018-02-06T01:59:48.393Z,17.70
2018-02-06T02:02:14.416Z,17.00
2018-02-06T02:04:40.500Z,25.60
2018-02-06T02:07:06.489Z,18.30
2018-02-06T02:09:32.543Z,20.40
2018-02-06T02:11:58.553Z,22.03
2018-02-06T02:14:24.593Z,16.90
2018-02-06T02:16:50.585Z,24.10
2018-02-06T02:19:16.636Z,20.50
2018-02-06T02:21:42.649Z,21.30
2018-02-06T02:24:08.673Z,16.63
2018-02-06T02:26:34.709Z,19.90
2018-02-06T02:29:00.739Z,20.80
2018-02-06T02:31:26.780Z,15.67
2018-02-06T02:33:52.816Z,18.93
2018-02-06T02:36:18.843Z,19.67
2018-02-06T02:38:44.900Z,24.13
2018-02-06T02:41:10.924Z,20.10
2018-02-06T04:40:24.033Z,17.73
2018-02-06T04:42:50.061Z,20.07
2018-02-06T04:45:16.097Z,20.53
2018-02-06T04:47:42.148Z,16.80
2018-02-06T04:50:08.153Z,18.10
2018-02-06T04:52:34.180Z,19.27
2018-02-06T04:55:00.280Z,20.20
2018-02-06T04:57:26.305Z,19.43
2018-02-06T04:59:52.380Z,20.47
2018-02-06T05:02:18.432Z,23.97
2018-02-06T05:04:44.450Z,25.07
2018-02-06T05:07:10.473Z,29.53
2018-02-06T05:09:36.485Z,21.33
2018-02-06T05:12:02.500Z,23.00
2018-02-06T05:14:28.496Z,24.67
2018-02-06T05:16:54.515Z,18.70
2018-02-06T05:19:20.594Z,21.20
2018-02-06T05:21:46.606Z,23.87
2018-02-06T05:24:12.644Z,23.57
2018-02-06T05:26:38.681Z,23.77
2018-02-06T05:29:04.697Z,23.10
2018-02-06T05:31:30.739Z,29.87
2018-02-06T05:33:56.788Z,28.27
2018-02-06T05:36:22.798Z,19.97
2018-02-06T05:38:48.944Z,29.77
2018-02-06T05:41:14.972Z,22.73
2018-02-06T05:43:40.979Z,21.43
2018-02-06T05:46:07.070Z,16.93
2018-02-06T05:48:33.134Z,19.77
2018-02-06T05:50:59.120Z,16.80
2018-02-06T05:53:25.124Z,21.73
2018-02-06T05:55:51.168Z,17.50
2018-02-06T05:58:17.353Z,21.20
2018-02-06T06:00:43.441Z,22.10
2018-02-06T06:03:09.441Z,21.60
2018-02-06T06:05:35.490Z,20.00
2018-02-06T06:08:01.464Z,24.60
2018-02-06T06:10:27.465Z,22.53
2018-02-06T06:12:53.496Z,24.60
2018-02-06T06:15:19.517Z,20.63
2018-02-06T06:17:45.604Z,19.80
2018-02-06T06:20:11.629Z,23.33
2018-02-06T06:22:37.794Z,26.40
2018-02-06T06:25:03.995Z,19.20
2018-02-06T06:27:30.030Z,22.77
2018-02-06T06:29:56.129Z,18.13
2018-02-06T06:32:22.177Z,20.27
2018-02-06T06:34:48.220Z,24.40
2018-02-06T06:37:14.376Z,21.50
2018-02-06T06:39:40.464Z,20.70
2018-02-06T06:42:06.493Z,27.53
2018-02-06T06:44:32.525Z,21.30
2018-02-06T06:46:58.681Z,19.83
2018-02-06T06:49:24.703Z,22.30
2018-02-06T06:51:50.744Z,27.63
2018-02-06T06:54:16.855Z,23.87
2018-02-06T06:56:42.833Z,26.20
2018-02-06T06:59:08.819Z,26.10
2018-02-06T07:01:34.912Z,18.90
2018-02-06T07:04:00.965Z,25.70
2018-02-06T07:06:27.065Z,23.67
2018-02-06T07:08:53.015Z,25.17
2018-02-06T07:11:19.032Z,21.53
2018-02-06T07:13:45.030Z,22.30
2018-02-06T07:16:11.087Z,24.50
2018-02-06T07:18:37.226Z,23.57
2018-02-06T07:21:03.285Z,28.93
2018-02-06T07:23:29.281Z,29.33
2018-02-06T07:25:55.288Z,29.00
2018-02-06T07:28:21.322Z,25.60
2018-02-06T07:30:47.353Z,38.20
2018-02-06T07:33:13.677Z,34.90
2018-02-06T07:35:39.686Z,26.13
2018-02-06T07:38:05.744Z,32.33
2018-02-06T07:40:31.752Z,28.93
2018-02-06T07:42:57.733Z,31.10
2018-02-06T07:45:23.823Z,30.87
2018-02-06T07:47:49.874Z,30.60
2018-02-06T07:50:15.835Z,25.77
2018-02-06T07:52:41.853Z,24.20
2018-02-06T07:55:07.880Z,25.93
2018-02-06T07:57:33.885Z,26.87
2018-02-06T07:59:59.941Z,25.80
2018-02-06T08:02:25.883Z,26.00
2018-02-06T08:04:51.900Z,27.50
2018-02-06T08:07:17.942Z,28.67
2018-02-06T08:09:43.937Z,28.20
2018-02-06T08:12:09.920Z,33.13
2018-02-06T08:14:35.952Z,34.60
2018-02-06T08:17:01.992Z,36.90
2018-02-06T08:19:28.040Z,32.37
2018-02-06T08:21:54.125Z,37.03
2018-02-06T08:24:20.193Z,33.77
2018-02-06T08:26:46.217Z,26.47
2018-02-06T08:29:12.228Z,28.43
2018-02-06T08:31:38.248Z,27.97
2018-02-06T08:34:04.275Z,29.97
2018-02-06T08:36:30.353Z,32.57
2018-02-06T08:38:56.308Z,25.37
2018-02-06T08:41:22.337Z,25.10
2018-02-06T08:43:48.845Z,25.97
2018-02-06T08:46:14.829Z,33.00
2018-02-06T08:48:40.897Z,26.60
2018-02-06T08:51:06.926Z,26.73
2018-02-06T08:53:32.957Z,29.67
2018-02-06T08:55:58.960Z,24.37
2018-02-06T08:58:24.963Z,29.83
2018-02-06T09:00:51.242Z,32.03
2018-02-06T09:03:17.292Z,29.50
2018-02-06T09:05:43.296Z,27.90
2018-02-06T09:08:09.324Z,32.93
2018-02-06T09:10:35.329Z,27.27
2018-02-06T09:13:01.371Z,31.63
2018-02-06T09:15:27.394Z,29.37
2018-02-06T09:17:53.441Z,30.77
2018-02-06T09:20:19.457Z,28.33
2018-02-06T09:22:45.488Z,36.57
2018-02-06T09:25:11.574Z,26.90
2018-02-06T09:27:37.576Z,31.53
2018-02-06T09:30:03.697Z,28.37
2018-02-06T09:32:29.720Z,30.00
2018-02-06T09:34:55.762Z,33.83
2018-02-06T09:37:21.793Z,30.17
2018-02-06T09:39:47.793Z,27.33
2018-02-06T09:42:13.853Z,24.00
2018-02-06T09:44:39.921Z,25.20
2018-02-06T09:47:05.944Z,27.43
2018-02-06T09:49:31.949Z,32.37
2018-02-06T09:51:58.086Z,27.80
2018-02-06T09:54:24.440Z,33.10
2018-02-06T09:56:50.493Z,32.67
2018-02-06T09:59:16.655Z,27.50
2018-02-06T10:01:42.622Z,29.93
2018-02-06T10:04:08.631Z,24.40
2018-02-06T10:06:34.647Z,26.27
2018-02-06T10:09:00.721Z,28.90
2018-02-06T10:11:26.764Z,35.23
2018-02-06T10:13:52.780Z,26.70
2018-02-06T10:16:18.761Z,27.27
2018-02-06T10:18:44.769Z,28.20
2018-02-06T10:21:10.801Z,30.20
2018-02-06T10:23:36.868Z,28.87
2018-02-06T10:26:02.854Z,31.17
2018-02-06T10:28:29.292Z,25.03
2018-02-06T10:30:55.308Z,23.63
2018-02-06T10:33:21.311Z,23.77
2018-02-06T10:35:54.427Z,23.63
2018-02-06T10:38:20.443Z,31.37
2018-02-06T10:40:46.444Z,41.87
2018-02-06T10:43:12.524Z,22.20
2018-02-06T10:45:38.934Z,25.87
2018-02-06T10:48:04.956Z,30.40
2018-02-06T10:50:30.946Z,36.17
2018-02-06T10:52:57.022Z,23.40
2018-02-06T10:55:23.036Z,28.87
2018-02-06T10:57:49.069Z,32.43
2018-02-06T11:00:15.078Z,25.90
2018-02-06T11:02:41.427Z,25.67
2018-02-06T11:05:07.431Z,25.50
2018-02-06T11:07:33.439Z,24.97
2018-02-06T11:09:59.520Z,19.77
2018-02-06T11:12:25.552Z,27.30
2018-02-06T11:14:51.953Z,22.73
2018-02-06T11:17:17.999Z,30.10
2018-02-06T11:19:44.087Z,24.30
2018-02-06T11:22:10.124Z,19.37
2018-02-06T11:24:36.137Z,25.77
2018-02-06T11:27:02.590Z,25.50
2018-02-06T11:29:28.599Z,24.63
2018-02-06T11:31:54.700Z,27.37
2018-02-06T11:34:20.733Z,22.07
2018-02-06T11:36:46.804Z,25.20
2018-02-06T11:39:13.215Z,30.47
2018-02-06T11:41:39.228Z,31.43
2018-02-06T11:44:05.224Z,24.57
2018-02-06T11:46:31.340Z,27.23
2018-02-06T11:48:57.286Z,24.27
2018-02-06T11:51:23.633Z,33.07
2018-02-06T11:53:49.612Z,28.83
2018-02-06T11:56:15.656Z,17.90
2018-02-06T11:58:41.685Z,28.30
2018-02-06T12:01:07.755Z,26.07
2018-02-06T12:03:34.207Z,24.00
2018-02-06T12:06:00.180Z,24.10
2018-02-06T12:08:26.205Z,23.47
2018-02-06T12:10:52.240Z,25.10
2018-02-06T12:13:18.280Z,24.23
2018-02-06T12:15:44.853Z,27.53
2018-02-06T12:18:10.898Z,30.20
2018-02-06T12:20:36.912Z,19.67
2018-02-06T12:23:02.963Z,26.70
2018-02-06T12:25:28.953Z,21.10
2018-02-06T12:27:55.309Z,25.73
2018-02-06T12:30:21.350Z,22.57
2018-02-06T12:32:47.360Z,24.97
2018-02-06T12:35:14.263Z,26.10
2018-02-06T12:37:40.296Z,23.40
2018-02-06T12:40:06.727Z,21.50
2018-02-06T12:42:32.799Z,19.83
2018-02-06T12:44:58.805Z,25.37
2018-02-06T12:47:24.893Z,20.63
2018-02-06T12:49:50.911Z,22.13
2018-02-06T12:52:16.980Z,24.10
2018-02-06T12:54:42.977Z,22.93
2018-02-06T12:57:09.029Z,19.80
2018-02-06T12:59:35.086Z,24.10
2018-02-06T13:02:01.107Z,26.53
2018-02-06T13:04:27.487Z,21.57
2018-02-06T13:06:53.511Z,23.57
2018-02-06T13:09:19.511Z,23.53
2018-02-06T13:11:45.555Z,26.90
2018-02-06T13:14:11.553Z,25.90
2018-02-06T13:16:37.564Z,23.33
2018-02-06T13:19:03.580Z,29.13
2018-02-06T13:21:29.970Z,24.57
2018-02-06T13:23:56.147Z,24.10
2018-02-06T13:26:22.169Z,32.93
2018-02-06T13:28:48.150Z,26.23
2018-02-06T13:31:14.175Z,23.53
2018-02-06T13:33:40.263Z,28.33
2018-02-06T13:36:06.264Z,22.97
2018-02-06T13:38:32.659Z,32.43
2018-02-06T13:40:58.688Z,21.90
2018-02-06T13:43:24.663Z,24.43
2018-02-06T13:45:50.723Z,27.10
2018-02-06T13:48:16.829Z,25.50
2018-02-06T13:50:43.246Z,23.70
2018-02-06T13:53:09.308Z,22.00
2018-02-06T13:55:35.385Z,25.60
2018-02-06T13:58:01.468Z,28.93
2018-02-06T14:00:27.581Z,26.90
2018-02-06T14:02:53.640Z,27.37
2018-02-06T14:05:19.668Z,29.77
2018-02-06T14:07:46.015Z,26.03
2018-02-06T14:10:12.021Z,30.53
2018-02-06T14:12:38.001Z,35.73
2018-02-06T14:15:04.064Z,25.87
2018-02-06T14:17:30.080Z,27.90
2018-02-06T14:19:56.133Z,30.93
2018-02-06T14:22:22.152Z,29.10
2018-02-06T14:24:48.587Z,33.60
2018-02-06T14:27:14.616Z,24.70
2018-02-06T14:29:40.669Z,25.63
2018-02-06T14:32:06.721Z,28.50
2018-02-06T14:34:32.753Z,23.10
2018-02-06T14:36:58.849Z,24.40
2018-02-06T14:39:24.804Z,21.60
2018-02-06T14:41:51.273Z,27.23
2018-02-06T14:44:17.446Z,26.07
2018-02-06T14:46:43.514Z,22.67
2018-02-06T14:49:09.634Z,25.20
2018-02-06T14:51:35.673Z,25.07
2018-02-06T14:54:01.652Z,28.03
2018-02-06T14:56:27.642Z,25.00
2018-02-06T14:58:53.641Z,26.70
2018-02-06T15:01:19.685Z,26.63
2018-02-06T15:03:46.108Z,25.80
2018-02-06T15:06:12.144Z,28.93
2018-02-06T15:08:38.241Z,32.83
2018-02-06T15:11:04.298Z,26.47
2018-02-06T15:13:30.340Z,25.03
2018-02-06T15:15:56.738Z,23.47
2018-02-06T15:18:22.752Z,35.70
2018-02-06T15:20:48.756Z,18.60
2018-02-06T15:23:14.822Z,32.77
2018-02-06T15:25:40.882Z,32.67
2018-02-06T15:28:06.852Z,38.70
2018-02-06T15:30:32.945Z,33.23
2018-02-06T15:32:58.984Z,30.57
2018-02-06T15:35:25.051Z,33.67
2018-02-06T15:37:51.096Z,40.77
2018-02-06T15:40:17.513Z,28.97
2018-02-06T15:42:43.843Z,27.83
2018-02-06T15:45:10.484Z,31.43
2018-02-06T15:47:36.508Z,28.73
2018-02-06T15:50:02.625Z,31.97
2018-02-06T15:52:28.629Z,28.60
2018-02-06T15:54:54.693Z,28.50
2018-02-06T15:57:20.844Z,27.33
2018-02-06T15:59:49.566Z,37.07
2018-02-06T16:02:15.725Z,28.73
2018-02-06T16:04:42.695Z,38.20
2018-02-06T16:07:08.980Z,30.23
2018-02-06T16:09:36.545Z,31.87
2018-02-06T16:14:35.993Z,40.27
2018-02-06T16:17:02.178Z,30.17
2018-02-06T16:19:28.398Z,33.10
2018-02-06T16:21:55.113Z,33.37
2018-02-06T16:24:21.266Z,31.30
2018-02-06T16:26:47.403Z,40.57
2018-02-06T16:29:13.560Z,36.30
2018-02-06T16:31:39.686Z,33.23
2018-02-06T16:34:05.782Z,36.10
2018-02-06T16:36:31.810Z,31.63
2018-02-06T16:38:58.438Z,36.60
2018-02-06T16:41:24.481Z,39.70
2018-02-06T16:43:50.531Z,37.40
2018-02-06T16:46:16.841Z,32.80
2018-02-06T16:48:42.922Z,31.27
2018-02-06T16:51:09.012Z,39.10
2018-02-06T16:53:35.324Z,28.40
2018-02-06T16:56:01.846Z,32.40
2018-02-06T16:58:27.922Z,36.83
2018-02-06T17:00:54.022Z,39.63
2018-02-06T17:03:20.109Z,33.60
2018-02-06T17:05:46.120Z,26.87
2018-02-06T17:08:12.549Z,32.73
2018-02-06T17:10:38.628Z,31.60
2018-02-06T17:13:04.761Z,27.93
2018-02-06T17:15:30.834Z,29.20
2018-02-06T17:17:56.886Z,30.00
2018-02-06T17:20:22.935Z,29.40
2018-02-06T17:22:49.077Z,30.93
2018-02-06T17:25:15.550Z,30.10
2018-02-06T17:27:41.597Z,26.73
2018-02-06T17:30:07.619Z,33.23
2018-02-06T17:32:33.653Z,27.83
2018-02-06T17:34:59.753Z,33.23
2018-02-06T17:37:25.798Z,24.87
2018-02-06T17:39:51.813Z,32.17
2018-02-06T17:42:17.910Z,29.70
2018-02-06T17:44:43.938Z,29.03
2018-02-06T17:47:10.377Z,30.03
2018-02-06T17:49:36.374Z,32.90
2018-02-06T17:52:02.374Z,27.70
2018-02-06T17:54:28.996Z,32.13
2018-02-06T17:56:55.169Z,34.63
2018-02-06T17:59:21.174Z,30.90
2018-02-06T18:01:47.279Z,34.13
2018-02-06T18:04:13.355Z,30.77
2018-02-06T18:06:39.805Z,36.30
2018-02-06T18:09:05.897Z,37.67
2018-02-06T18:11:31.980Z,32.47
2018-02-06T18:13:58.029Z,33.10
2018-02-06T18:16:24.111Z,35.20
2018-02-06T18:18:50.322Z,31.33
2018-02-06T18:21:16.462Z,32.17
2018-02-06T18:23:42.913Z,31.40
2018-02-06T18:26:09.006Z,34.27
2018-02-06T18:28:35.005Z,31.47
2018-02-06T18:31:01.223Z,37.40
2018-02-06T18:33:27.279Z,34.57
2018-02-06T18:35:53.656Z,31.70
2018-02-06T18:38:19.835Z,30.27
2018-02-06T18:40:45.897Z,31.63
2018-02-06T18:43:11.993Z,30.80
2018-02-06T18:45:38.092Z,34.60
2018-02-06T18:48:04.114Z,31.47
2018-02-06T18:50:30.170Z,34.27
2018-02-06T18:52:56.313Z,32.57
2018-02-06T18:55:22.376Z,38.50
2018-02-06T18:57:48.774Z,41.10
2018-02-06T19:00:14.820Z,27.77
2018-02-06T19:02:41.022Z,31.73
2018-02-06T19:05:07.097Z,36.03
2018-02-06T19:07:33.236Z,40.70
2018-02-06T19:09:59.290Z,35.03
2018-02-06T19:12:25.733Z,35.10
2018-02-06T19:14:52.112Z,30.47
2018-02-06T19:17:18.169Z,32.90
2018-02-06T19:19:44.260Z,34.97
2018-02-06T19:22:10.384Z,29.40
2018-02-06T19:24:36.669Z,34.43
2018-02-06T19:27:02.814Z,33.27
2018-02-06T19:29:29.317Z,34.90
2018-02-06T19:31:55.405Z,34.27
2018-02-06T19:34:21.429Z,31.93
2018-02-06T19:36:49.312Z,31.10
2018-02-06T19:39:15.373Z,29.03
2018-02-06T19:41:42.425Z,38.33
2018-02-06T19:44:08.562Z,33.80
2018-02-06T19:46:34.674Z,37.90
2018-02-06T19:49:00.743Z,34.37
2018-02-06T19:51:27.879Z,39.37
2018-02-06T19:53:53.970Z,36.30
2018-02-06T19:56:19.993Z,40.60
2018-02-06T19:58:47.433Z,36.57
2018-02-06T20:01:14.527Z,36.60
2018-02-06T20:03:41.098Z,34.70
2018-02-06T20:06:07.136Z,34.37
2018-02-06T20:08:33.198Z,31.80
2018-02-06T20:10:59.321Z,34.77
2018-02-06T20:13:26.444Z,36.23
2018-02-06T20:15:52.884Z,34.50
2018-02-06T20:18:18.925Z,40.40
2018-02-06T20:20:45.098Z,39.27
2018-02-06T20:23:12.165Z,37.23
2018-02-06T20:25:38.293Z,39.30
2018-02-06T20:28:04.399Z,35.70
2018-02-06T20:30:30.461Z,31.33
2018-02-06T20:32:56.530Z,30.80
2018-02-06T20:35:22.618Z,34.10
2018-02-06T20:37:48.702Z,34.57
2018-02-06T20:40:14.824Z,41.93
2018-02-06T20:42:40.856Z,39.90
2018-02-06T20:45:07.341Z,38.07
2018-02-06T20:47:33.390Z,38.90
2018-02-06T20:49:59.346Z,42.73
2018-02-06T20:52:26.433Z,38.50
2018-02-06T20:54:52.475Z,43.03
2018-02-06T20:57:18.548Z,42.07
2018-02-06T20:59:44.667Z,45.70
2018-02-06T21:02:10.707Z,48.93
2018-02-06T21:04:36.721Z,53.27
2018-02-06T21:07:02.764Z,44.87
2018-02-06T21:09:29.139Z,45.77
2018-02-06T21:11:55.184Z,38.83
2018-02-06T21:14:21.643Z,43.90
2018-02-06T21:16:47.657Z,42.23
2018-02-06T21:19:13.695Z,48.23
2018-02-06T21:21:39.769Z,45.90
2018-02-06T21:24:05.853Z,35.10
2018-02-06T21:26:31.890Z,49.77
2018-02-06T21:28:57.975Z,50.90
2018-02-06T21:31:24.407Z,55.10
2018-02-06T21:33:50.333Z,50.27
2018-02-06T21:36:16.396Z,48.43
2018-02-06T21:38:42.492Z,47.60
2018-02-06T21:41:08.524Z,45.20
2018-02-06T21:43:34.509Z,44.33
2018-02-06T21:46:00.566Z,44.57
2018-02-06T21:48:26.960Z,54.70
2018-02-06T21:50:53.016Z,52.60
2018-02-06T21:53:19.050Z,51.33
2018-02-06T21:55:45.106Z,49.10
2018-02-06T21:58:11.148Z,46.13
2018-02-06T22:00:37.271Z,47.53
2018-02-06T22:03:03.264Z,45.73
2018-02-06T22:05:29.606Z,47.07
2018-02-06T22:07:55.680Z,45.43
2018-02-06T22:10:21.709Z,49.50
2018-02-06T22:12:47.847Z,41.77
2018-02-06T22:15:13.877Z,47.07
2018-02-06T22:17:39.954Z,48.80
2018-02-06T22:20:05.992Z,45.33
2018-02-06T22:22:32.443Z,40.57
2018-02-06T22:24:58.508Z,48.10
2018-02-06T22:27:24.601Z,42.70
2018-02-06T22:29:50.622Z,39.53
2018-02-06T22:32:16.622Z,47.70
2018-02-06T22:34:42.641Z,45.07
2018-02-06T22:37:08.686Z,44.47
2018-02-06T22:39:35.138Z,51.53
2018-02-06T22:42:01.154Z,41.20
2018-02-06T22:44:27.196Z,42.40
2018-02-06T22:46:53.362Z,41.20
2018-02-06T22:49:19.411Z,43.23
2018-02-06T22:51:45.434Z,46.43
2018-02-06T22:54:11.445Z,49.37
2018-02-06T22:56:37.485Z,42.07
2018-02-06T22:59:03.499Z,50.00
2018-02-06T23:01:29.522Z,40.00
2018-02-06T23:03:55.562Z,47.90
2018-02-06T23:06:21.645Z,41.27
2018-02-06T23:08:48.044Z,41.27
2018-02-06T23:11:14.055Z,58.63
2018-02-06T23:13:40.055Z,47.17
2018-02-06T23:16:06.083Z,44.87
2018-02-06T23:18:32.093Z,45.40
2018-02-06T23:20:58.173Z,44.00
2018-02-06T23:23:24.197Z,47.40
2018-02-06T23:25:50.222Z,62.90
2018-02-06T23:28:16.290Z,55.73
2018-02-06T23:30:42.601Z,46.47
2018-02-06T23:33:08.646Z,53.20
2018-02-06T23:35:34.677Z,42.23
2018-02-06T23:38:00.729Z,48.50
2018-02-06T23:40:26.777Z,50.43
2018-02-06T23:42:52.845Z,47.83
2018-02-06T23:45:18.873Z,48.37
2018-02-06T23:47:44.899Z,50.20
2018-02-06T23:50:10.923Z,45.00
2018-02-06T23:52:36.952Z,36.87
2018-02-06T23:55:03.336Z,45.23
2018-02-06T23:57:29.769Z,44.57
2018-02-06T23:59:55.792Z,55.67
